Terminal Aerodrome Forecast
Issued by NWS Portland, OR

Home | Current Version | Previous Version | Text Only | Print | Product List | Glossary On
Versions: 1 2 3 4 5 6 7 8 9 10 11 12 13 14
000
FTUS46 KPQR 211125
TAFHIO
TAF
KHIO 211125Z 2112/2212 17015G22KT 6SM RA BKN020 OVC040
     FM211500 16012KT 5SM RA BR OVC015
     FM212100 18016G24KT 2SM -RA BR OVC015
     FM220200 18022G30KT 4SM -RA OVC015
     FM220400 19025G35KT 6SM -RA OVC015
     FM220800 20020G27KT 6SM -RA OVC015=

USA.gov is the U.S. government's official web portal to all federal, state and local government web resources and services.